createdAt,value
2023-12-03T00:00:08.554Z,57.80
2023-12-03T00:02:37.027Z,69.70
2023-12-03T00:05:04.476Z,68.70
2023-12-03T00:07:31.967Z,66.60
2023-12-03T00:10:00.289Z,62.00
2023-12-03T00:12:27.013Z,62.60
2023-12-03T00:14:53.454Z,55.90
2023-12-03T00:17:19.890Z,59.10
2023-12-03T00:19:46.352Z,54.20
2023-12-03T00:22:12.897Z,64.90
2023-12-03T00:24:39.622Z,80.40
2023-12-03T00:27:06.340Z,118.00
2023-12-03T00:29:32.833Z,101.60
2023-12-03T00:31:59.254Z,76.50
2023-12-03T00:34:25.648Z,60.50
2023-12-03T00:36:52.555Z,56.50
2023-12-03T00:39:18.899Z,63.50
2023-12-03T00:41:45.377Z,60.30
2023-12-03T00:44:11.812Z,70.90
2023-12-03T00:46:38.193Z,107.10
2023-12-03T00:49:05.177Z,116.60
2023-12-03T00:51:31.737Z,110.00
2023-12-03T00:53:58.165Z,91.00
2023-12-03T00:56:24.672Z,117.60
2023-12-03T00:58:51.161Z,122.50
2023-12-03T01:01:20.118Z,101.60
2023-12-03T01:03:46.733Z,95.20
2023-12-03T01:06:13.281Z,78.80
2023-12-03T01:08:39.709Z,90.50
2023-12-03T01:11:06.840Z,82.80
2023-12-03T01:13:33.162Z,72.30
2023-12-03T01:15:59.612Z,68.50
2023-12-03T01:18:26.243Z,69.80
2023-12-03T01:20:52.661Z,75.10
2023-12-03T01:23:19.095Z,68.40
2023-12-03T01:25:45.494Z,70.20
2023-12-03T01:28:11.921Z,76.50
2023-12-03T01:30:38.408Z,67.90
2023-12-03T01:33:04.958Z,69.60
2023-12-03T01:35:31.562Z,76.30
2023-12-03T01:37:58.540Z,69.00
2023-12-03T01:40:25.029Z,69.80
2023-12-03T01:42:51.846Z,75.90
2023-12-03T01:45:18.192Z,61.10
2023-12-03T01:47:44.812Z,65.20
2023-12-03T01:50:13.139Z,63.90
2023-12-03T01:52:39.930Z,72.00
2023-12-03T01:55:08.319Z,74.60
2023-12-03T01:57:35.404Z,82.00
2023-12-03T02:00:03.779Z,85.50
2023-12-03T02:02:39.775Z,77.80
2023-12-03T02:05:06.724Z,75.00
2023-12-03T02:07:33.217Z,76.60
2023-12-03T02:10:00.244Z,108.60
2023-12-03T02:12:27.768Z,70.20
2023-12-03T02:14:54.233Z,75.70
2023-12-03T02:17:20.638Z,67.00
2023-12-03T02:19:47.015Z,61.60
2023-12-03T02:22:13.420Z,64.30
2023-12-03T02:24:39.781Z,69.20
2023-12-03T02:27:06.136Z,57.00
2023-12-03T02:29:32.705Z,52.20
2023-12-03T02:31:59.169Z,72.80
2023-12-03T02:34:25.654Z,58.40
2023-12-03T02:36:52.037Z,61.50
2023-12-03T02:39:18.455Z,58.40
2023-12-03T02:41:44.829Z,47.60
2023-12-03T02:44:11.170Z,58.30
2023-12-03T02:46:37.532Z,53.70
2023-12-03T02:49:04.052Z,51.10
2023-12-03T02:51:30.698Z,46.50
2023-12-03T02:53:57.171Z,49.50
2023-12-03T02:56:23.756Z,55.00
2023-12-03T02:58:50.084Z,60.00
2023-12-03T03:01:16.684Z,164.30
2023-12-03T03:03:43.173Z,389.80
2023-12-03T03:06:09.773Z,163.50
2023-12-03T03:08:36.276Z,127.90
2023-12-03T03:11:03.013Z,79.80
2023-12-03T03:13:29.511Z,62.60
2023-12-03T03:15:55.893Z,70.30
2023-12-03T03:18:22.447Z,62.40
2023-12-03T03:20:48.915Z,55.80
2023-12-03T03:23:15.297Z,68.20
2023-12-03T03:25:41.688Z,55.90
2023-12-03T03:28:08.134Z,55.10
2023-12-03T03:30:34.619Z,54.90
2023-12-03T03:33:01.090Z,52.60
2023-12-03T03:35:27.468Z,51.50
2023-12-03T03:37:53.873Z,53.80
2023-12-03T03:40:20.251Z,64.90
2023-12-03T03:42:46.675Z,66.90
2023-12-03T03:45:13.388Z,60.60
2023-12-03T03:47:39.798Z,58.70
2023-12-03T03:50:06.742Z,55.80
2023-12-03T03:52:33.144Z,51.30
2023-12-03T03:54:59.556Z,58.40
2023-12-03T03:57:26.051Z,55.00
2023-12-03T03:59:52.373Z,53.50
2023-12-03T04:02:18.778Z,54.20
2023-12-03T04:04:45.174Z,58.30
2023-12-03T04:07:12.235Z,70.30
2023-12-03T04:09:38.779Z,71.80
2023-12-03T04:12:05.375Z,70.80
2023-12-03T04:14:31.693Z,67.90
2023-12-03T04:16:59.274Z,80.50
2023-12-03T04:19:26.188Z,67.00
2023-12-03T04:21:52.776Z,73.10
2023-12-03T04:24:19.248Z,76.20
2023-12-03T04:26:45.724Z,69.00
2023-12-03T04:29:15.362Z,63.40
2023-12-03T04:31:42.510Z,65.00
2023-12-03T04:34:08.937Z,72.60
2023-12-03T04:36:36.139Z,80.70
2023-12-03T04:39:05.285Z,71.00
2023-12-03T04:41:35.768Z,79.20
2023-12-03T04:44:02.324Z,76.90
2023-12-03T04:46:28.682Z,172.60
2023-12-03T04:48:55.848Z,193.90
2023-12-03T04:51:23.369Z,176.50
2023-12-03T04:53:49.751Z,132.80
2023-12-03T04:56:16.189Z,442.80
2023-12-03T04:58:42.681Z,205.60
2023-12-03T05:01:09.674Z,319.10
2023-12-03T05:03:36.183Z,184.60
2023-12-03T05:06:02.880Z,125.30
2023-12-03T05:08:29.201Z,231.60
2023-12-03T05:10:55.576Z,229.90
2023-12-03T05:13:21.941Z,314.50
2023-12-03T05:15:48.291Z,248.70
2023-12-03T05:18:14.901Z,366.00
2023-12-03T05:20:41.943Z,154.10
2023-12-03T05:23:08.337Z,142.70
2023-12-03T05:25:34.749Z,222.00
2023-12-03T05:28:01.206Z,131.70
2023-12-03T05:30:28.227Z,124.00
2023-12-03T05:32:54.690Z,117.70
2023-12-03T05:35:21.148Z,233.60
2023-12-03T05:37:47.650Z,154.60
2023-12-03T05:40:14.158Z,167.30
2023-12-03T05:42:40.684Z,148.20
2023-12-03T05:45:08.312Z,167.80
2023-12-03T05:47:36.056Z,122.10
2023-12-03T05:50:03.710Z,129.90
2023-12-03T05:52:30.277Z,167.80
2023-12-03T05:54:56.982Z,190.20
2023-12-03T05:57:23.534Z,280.50
2023-12-03T05:59:51.666Z,195.30
2023-12-03T06:02:18.303Z,151.80
2023-12-03T06:04:44.820Z,193.10
2023-12-03T06:07:11.534Z,171.80
2023-12-03T06:09:38.756Z,158.50
2023-12-03T06:12:05.769Z,143.60
2023-12-03T06:14:32.255Z,130.40
2023-12-03T06:16:58.732Z,141.80
2023-12-03T06:19:25.609Z,138.50
2023-12-03T06:21:52.642Z,122.60
2023-12-03T06:24:19.698Z,144.30
2023-12-03T06:26:46.085Z,137.00
2023-12-03T06:29:15.491Z,119.10
2023-12-03T06:31:42.353Z,123.40
2023-12-03T06:34:08.940Z,129.40
2023-12-03T06:36:35.510Z,134.70
2023-12-03T06:39:02.127Z,148.30
2023-12-03T06:41:28.568Z,123.30
2023-12-03T06:43:55.049Z,128.80
2023-12-03T06:46:21.430Z,121.00
2023-12-03T06:48:47.836Z,110.30
2023-12-03T06:51:14.437Z,154.50
2023-12-03T06:53:40.942Z,152.60
2023-12-03T06:56:13.375Z,122.50
2023-12-03T06:58:39.967Z,105.90
2023-12-03T07:01:06.818Z,106.30
2023-12-03T07:03:33.216Z,109.30
2023-12-03T07:06:00.709Z,89.40
2023-12-03T07:08:27.180Z,96.10
2023-12-03T07:10:53.606Z,77.00
2023-12-03T07:13:20.064Z,80.50
2023-12-03T07:15:46.487Z,78.90
2023-12-03T07:18:13.097Z,82.10
2023-12-03T07:20:39.611Z,81.60
2023-12-03T07:23:05.971Z,72.60
2023-12-03T07:25:32.394Z,67.90
2023-12-03T07:27:58.925Z,73.70
2023-12-03T07:30:25.815Z,74.60
2023-12-03T07:32:52.886Z,73.10
2023-12-03T07:35:19.331Z,85.40
2023-12-03T07:37:45.958Z,80.00
2023-12-03T07:40:12.460Z,71.80
2023-12-03T07:42:40.743Z,83.90
2023-12-03T07:45:08.564Z,78.60
2023-12-03T07:47:35.031Z,82.30
2023-12-03T07:50:01.602Z,86.20
2023-12-03T07:52:28.170Z,102.00
2023-12-03T07:54:54.636Z,120.60
2023-12-03T07:57:21.132Z,108.60
2023-12-03T07:59:47.576Z,123.20
2023-12-03T08:02:14.125Z,108.30
2023-12-03T08:04:40.669Z,103.10
2023-12-03T08:07:07.437Z,167.90
2023-12-03T08:09:34.043Z,111.30
2023-12-03T08:12:00.603Z,114.70
2023-12-03T08:14:27.021Z,113.10
2023-12-03T08:16:53.409Z,115.40
2023-12-03T08:19:19.959Z,116.40
2023-12-03T08:21:47.771Z,95.40
2023-12-03T08:24:15.040Z,70.40
2023-12-03T08:26:45.798Z,62.80
2023-12-03T08:29:15.793Z,49.30
2023-12-03T08:31:42.349Z,46.80
2023-12-03T08:34:10.047Z,37.00
2023-12-03T08:36:42.063Z,38.80
2023-12-03T08:39:11.384Z,30.40
2023-12-03T08:41:39.465Z,35.70
2023-12-03T08:44:06.029Z,26.80
2023-12-03T08:46:35.849Z,18.50
2023-12-03T08:49:03.134Z,19.30
2023-12-03T08:51:32.440Z,16.10
2023-12-03T08:53:58.989Z,13.20
2023-12-03T08:56:26.050Z,20.70
2023-12-03T08:58:52.451Z,15.40
2023-12-03T09:01:20.980Z,11.50
2023-12-03T09:03:47.523Z,12.00
2023-12-03T09:06:14.063Z,9.40
2023-12-03T09:08:43.387Z,11.70
2023-12-03T09:11:10.917Z,43.80
2023-12-03T09:13:37.558Z,11.20
2023-12-03T09:16:04.711Z,10.70
2023-12-03T09:18:31.125Z,14.70
2023-12-03T09:20:57.652Z,9.00
2023-12-03T09:23:24.107Z,12.50
2023-12-03T09:25:50.544Z,14.90
2023-12-03T09:28:17.130Z,33.20
2023-12-03T09:30:43.601Z,46.10
2023-12-03T09:33:10.124Z,50.20
2023-12-03T09:35:36.995Z,31.80
2023-12-03T09:38:03.394Z,34.60
2023-12-03T09:40:30.032Z,32.70
2023-12-03T09:42:58.852Z,20.10
2023-12-03T09:45:29.192Z,13.70
2023-12-03T09:48:03.326Z,10.70
2023-12-03T09:50:34.739Z,8.60
2023-12-03T09:53:03.903Z,9.30
2023-12-03T09:55:32.834Z,9.80
2023-12-03T09:58:02.376Z,8.40
2023-12-03T10:00:31.201Z,10.60
2023-12-03T10:02:58.116Z,9.90
2023-12-03T10:05:26.195Z,9.20
2023-12-03T10:07:56.963Z,8.00
2023-12-03T10:10:29.210Z,27.00
2023-12-03T10:12:57.128Z,11.30
2023-12-03T10:15:25.999Z,23.00
2023-12-03T10:17:52.777Z,15.50
2023-12-03T10:20:22.466Z,11.40
2023-12-03T10:22:50.148Z,14.20
2023-12-03T10:25:29.653Z,13.90
2023-12-03T10:27:57.602Z,13.90
2023-12-03T10:30:24.546Z,13.10
2023-12-03T10:32:52.512Z,13.40
2023-12-03T10:35:22.400Z,11.90
2023-12-03T10:37:49.846Z,14.30
2023-12-03T10:40:17.401Z,15.10
2023-12-03T10:42:45.139Z,19.50
2023-12-03T10:45:14.458Z,21.50
2023-12-03T10:47:43.693Z,14.50
2023-12-03T10:50:14.216Z,14.10
2023-12-03T10:52:41.983Z,12.80
2023-12-03T10:55:09.006Z,14.60
2023-12-03T10:57:46.861Z,18.40
2023-12-03T11:00:18.468Z,15.50
2023-12-03T11:02:49.562Z,44.40
2023-12-03T11:05:34.362Z,32.90
2023-12-03T11:08:02.157Z,29.20
2023-12-03T11:10:30.142Z,34.30
2023-12-03T11:12:58.490Z,30.30
2023-12-03T11:15:25.372Z,29.90
2023-12-03T11:17:53.278Z,37.70
2023-12-03T11:20:31.306Z,32.60
2023-12-03T11:23:17.282Z,49.50
2023-12-03T11:28:17.569Z,39.90
2023-12-03T11:30:44.297Z,65.20
2023-12-03T11:33:15.318Z,37.30
2023-12-03T11:35:47.938Z,38.30
2023-12-03T11:38:21.225Z,43.30
2023-12-03T11:40:48.833Z,45.50
2023-12-03T11:43:25.946Z,31.30
2023-12-03T11:45:53.621Z,38.70
2023-12-03T11:48:21.938Z,27.20
2023-12-03T11:50:49.701Z,65.10
2023-12-03T11:53:17.940Z,31.50
2023-12-03T11:55:50.239Z,39.40
2023-12-03T11:58:23.268Z,40.10
2023-12-03T12:00:51.677Z,34.80
2023-12-03T12:03:18.651Z,39.30
2023-12-03T12:05:46.730Z,536.70
2023-12-03T12:08:21.969Z,929.60
2023-12-03T12:10:53.362Z,417.00
